createdAt,value
2018-06-28T00:00:19.634Z,17.86
2018-06-28T00:01:51.207Z,17.81
2018-06-28T00:03:22.782Z,17.82
2018-06-28T00:04:54.351Z,17.82
2018-06-28T00:06:25.923Z,17.79
2018-06-28T00:07:57.796Z,17.87
2018-06-28T00:09:29.068Z,17.89
2018-06-28T00:11:00.640Z,18.02
2018-06-28T00:12:32.213Z,18.25
2018-06-28T00:14:03.785Z,18.41
2018-06-28T00:15:35.357Z,18.17
2018-06-28T00:17:06.929Z,18.15
2018-06-28T00:18:38.504Z,18.17
2018-06-28T00:20:10.073Z,18.23
2018-06-28T00:21:41.647Z,18.23
2018-06-28T00:23:13.217Z,18.03
2018-06-28T00:24:44.789Z,18.08
2018-06-28T00:26:16.464Z,18.02
2018-06-28T00:27:47.939Z,18.14
2018-06-28T00:29:19.507Z,18.20
2018-06-28T00:30:51.083Z,18.14
2018-06-28T00:32:22.751Z,18.18
2018-06-28T00:33:54.224Z,18.29
2018-06-28T00:35:25.796Z,18.41
2018-06-28T00:36:57.368Z,18.50
2018-06-28T00:38:28.940Z,18.32
2018-06-28T00:40:00.513Z,18.29
2018-06-28T00:41:32.085Z,18.29
2018-06-28T00:43:03.657Z,18.36
2018-06-28T00:44:35.380Z,18.54
2018-06-28T00:46:06.802Z,18.45
2018-06-28T00:47:38.375Z,18.48
2018-06-28T00:49:09.945Z,18.36
2018-06-28T00:50:41.518Z,18.44
2018-06-28T00:52:13.090Z,18.48
2018-06-28T00:53:44.664Z,18.47
2018-06-28T00:55:16.237Z,18.26
2018-06-28T00:56:47.806Z,18.45
2018-06-28T00:58:19.380Z,18.41
2018-06-28T00:59:50.951Z,18.27
2018-06-28T01:01:22.523Z,18.29
2018-06-28T01:02:54.447Z,18.27
2018-06-28T01:04:25.671Z,18.14
2018-06-28T01:05:57.240Z,18.14
2018-06-28T01:07:28.813Z,18.17
2018-06-28T01:09:00.535Z,18.05
2018-06-28T01:10:31.958Z,18.17
2018-06-28T01:12:03.530Z,17.99
2018-06-28T01:13:35.103Z,17.99
2018-06-28T01:15:06.675Z,17.99
2018-06-28T01:16:38.247Z,17.95
2018-06-28T01:18:09.820Z,17.79
2018-06-28T01:19:41.391Z,17.78
2018-06-28T01:21:13.064Z,17.78
2018-06-28T01:22:44.536Z,17.78
2018-06-28T01:24:16.111Z,17.82
2018-06-28T01:25:47.680Z,17.77
2018-06-28T01:27:19.253Z,17.95
2018-06-28T01:28:50.825Z,17.79
2018-06-28T01:30:22.397Z,17.70
2018-06-28T01:31:53.975Z,17.58
2018-06-28T01:33:25.544Z,17.49
2018-06-28T01:34:57.116Z,17.66
2018-06-28T01:36:28.686Z,17.99
2018-06-28T01:38:00.260Z,18.08
2018-06-28T01:39:31.931Z,17.93
2018-06-28T01:41:03.408Z,17.77
2018-06-28T01:42:34.975Z,18.02
2018-06-28T01:44:06.547Z,18.14
2018-06-28T01:45:38.126Z,18.21
2018-06-28T01:47:09.724Z,18.32
2018-06-28T01:48:41.262Z,18.33
2018-06-28T01:50:12.840Z,18.23
2018-06-28T01:51:44.407Z,18.36
2018-06-28T01:53:15.978Z,18.30
2018-06-28T01:54:47.552Z,18.26
2018-06-28T01:56:19.129Z,18.39
2018-06-28T01:57:50.794Z,18.45
2018-06-28T01:59:22.266Z,18.44
2018-06-28T02:00:53.839Z,18.41
2018-06-28T02:02:25.411Z,18.05
2018-06-28T02:03:57.082Z,17.79
2018-06-28T02:05:28.554Z,17.70
2018-06-28T02:07:00.126Z,17.72
2018-06-28T02:08:31.698Z,17.71
2018-06-28T02:10:03.420Z,17.74
2018-06-28T02:11:34.841Z,17.75
2018-06-28T02:13:06.417Z,17.78
2018-06-28T02:14:37.986Z,17.89
2018-06-28T02:16:09.657Z,18.05
2018-06-28T02:17:41.128Z,18.07
2018-06-28T02:19:12.700Z,17.82
2018-06-28T02:20:44.274Z,17.79
2018-06-28T02:22:15.843Z,17.87
2018-06-28T02:23:47.416Z,17.93
2018-06-28T02:25:18.988Z,17.90
2018-06-28T02:26:50.558Z,18.07
2018-06-28T02:28:22.129Z,17.93
2018-06-28T02:29:53.702Z,17.86
2018-06-28T02:31:25.273Z,17.82
2018-06-28T02:32:56.848Z,17.68
2018-06-28T02:34:28.616Z,17.55
2018-06-28T02:35:59.988Z,17.44
2018-06-28T02:37:31.559Z,17.30
2018-06-28T02:39:03.132Z,17.33
2018-06-28T02:40:34.854Z,17.58
2018-06-28T02:42:06.274Z,17.77
2018-06-28T02:43:37.845Z,17.90
2018-06-28T02:45:09.416Z,18.00
2018-06-28T02:46:40.994Z,17.87
2018-06-28T02:48:12.560Z,17.82
2018-06-28T02:49:44.131Z,17.79
2018-06-28T02:51:15.702Z,17.81
2018-06-28T02:52:47.374Z,17.79
2018-06-28T02:54:18.845Z,17.81
2018-06-28T02:55:50.416Z,17.71
2018-06-28T02:57:21.989Z,17.58
2018-06-28T02:58:53.559Z,17.34
2018-06-28T03:00:25.131Z,17.14
2018-06-28T03:01:56.702Z,17.12
2018-06-28T03:03:28.273Z,16.97
2018-06-28T03:04:59.946Z,16.79
2018-06-28T03:06:31.418Z,16.70
2018-06-28T03:08:02.988Z,16.63
2018-06-28T03:09:34.560Z,16.53
2018-06-28T03:11:06.435Z,16.46
2018-06-28T03:12:37.702Z,16.42
2018-06-28T03:14:09.274Z,16.39
2018-06-28T03:15:40.846Z,16.33
2018-06-28T03:17:12.416Z,16.34
2018-06-28T03:18:43.987Z,16.39
2018-06-28T03:20:15.561Z,16.34
2018-06-28T03:21:47.132Z,16.42
2018-06-28T03:23:18.700Z,16.34
2018-06-28T03:24:50.272Z,16.12
2018-06-28T03:26:21.843Z,16.02
2018-06-28T03:27:53.414Z,15.96
2018-06-28T03:29:25.086Z,16.00
2018-06-28T03:30:56.579Z,15.86
2018-06-28T03:32:28.127Z,15.96
2018-06-28T03:33:59.698Z,15.96
2018-06-28T03:35:31.370Z,15.94
2018-06-28T03:37:02.841Z,15.96
2018-06-28T03:38:34.412Z,16.05
2018-06-28T03:40:05.982Z,16.12
2018-06-28T03:41:37.703Z,16.09
2018-06-28T03:43:09.131Z,16.11
2018-06-28T03:44:40.696Z,16.02
2018-06-28T03:46:12.267Z,16.00
2018-06-28T03:47:43.938Z,16.02
2018-06-28T03:49:15.409Z,16.00
2018-06-28T03:50:46.980Z,15.97
2018-06-28T03:52:18.552Z,15.96
2018-06-28T03:53:50.122Z,15.84
2018-06-28T03:55:21.693Z,15.86
2018-06-28T03:56:53.264Z,15.71
2018-06-28T03:58:24.836Z,15.80
2018-06-28T03:59:56.406Z,15.78
2018-06-28T04:01:27.978Z,15.84
2018-06-28T04:02:59.547Z,15.84
2018-06-28T04:04:31.118Z,15.96
2018-06-28T04:06:02.939Z,16.07
2018-06-28T04:07:34.265Z,16.27
2018-06-28T04:09:05.830Z,16.31
2018-06-28T04:10:37.401Z,16.25
2018-06-28T04:12:08.971Z,16.30
2018-06-28T04:13:40.544Z,16.28
2018-06-28T04:15:12.115Z,16.24
2018-06-28T04:16:43.737Z,16.23
2018-06-28T04:18:15.255Z,16.15
2018-06-28T04:19:46.825Z,16.15
2018-06-28T04:21:18.395Z,16.27
2018-06-28T04:22:49.966Z,16.11
2018-06-28T04:24:21.636Z,16.12
2018-06-28T04:25:53.107Z,16.28
2018-06-28T04:27:24.701Z,16.38
2018-06-28T04:28:56.251Z,16.45
2018-06-28T04:30:27.818Z,16.35
2018-06-28T04:31:59.388Z,16.34
2018-06-28T04:33:30.959Z,16.12
2018-06-28T04:35:02.529Z,16.25
2018-06-28T04:36:34.099Z,16.28
2018-06-28T04:38:05.670Z,16.41
2018-06-28T04:39:37.240Z,16.30
2018-06-28T04:41:08.810Z,16.45
2018-06-28T04:42:40.481Z,16.42
2018-06-28T04:44:11.953Z,16.43
2018-06-28T04:45:43.521Z,16.49
2018-06-28T04:47:15.091Z,16.53
2018-06-28T04:48:46.661Z,16.48
2018-06-28T04:50:18.232Z,16.58
2018-06-28T04:51:49.802Z,16.52
2018-06-28T04:53:21.372Z,16.60
2018-06-28T04:54:52.943Z,16.39
2018-06-28T04:56:24.514Z,16.28
2018-06-28T04:57:56.083Z,16.24
2018-06-28T04:59:27.658Z,16.17
2018-06-28T05:00:59.325Z,16.17
2018-06-28T05:02:30.799Z,16.15
2018-06-28T05:04:02.367Z,16.00
2018-06-28T05:05:33.937Z,15.72
2018-06-28T05:07:05.652Z,15.67
2018-06-28T05:08:37.078Z,15.60
2018-06-28T05:10:08.648Z,15.87
2018-06-28T05:11:40.219Z,15.93
2018-06-28T05:13:11.789Z,15.87
2018-06-28T05:14:43.360Z,15.92
2018-06-28T05:16:14.930Z,16.02
2018-06-28T05:17:46.501Z,15.96
2018-06-28T05:19:18.171Z,16.02
2018-06-28T05:20:49.647Z,16.30
2018-06-28T05:22:21.211Z,16.42
2018-06-28T05:23:52.781Z,16.45
2018-06-28T05:25:24.355Z,16.43
2018-06-28T05:26:55.922Z,16.39
2018-06-28T05:28:27.492Z,16.45
2018-06-28T05:29:59.068Z,16.57
2018-06-28T05:31:30.633Z,16.58
2018-06-28T05:33:02.206Z,16.60
2018-06-28T05:34:33.838Z,16.73
2018-06-28T05:36:05.344Z,16.56
2018-06-28T05:37:37.165Z,16.50
2018-06-28T05:39:08.484Z,16.53
2018-06-28T05:40:40.055Z,16.46
2018-06-28T05:42:11.625Z,16.41
2018-06-28T05:43:43.195Z,16.52
2018-06-28T05:45:14.766Z,16.88
2018-06-28T05:46:46.336Z,17.14
2018-06-28T05:48:17.907Z,17.31
2018-06-28T05:49:49.481Z,17.19
2018-06-28T05:51:21.047Z,17.18
2018-06-28T05:52:52.640Z,17.31
2018-06-28T05:54:24.189Z,17.26
2018-06-28T05:55:55.858Z,17.23
2018-06-28T05:57:27.329Z,17.19
2018-06-28T05:58:58.899Z,17.28
2018-06-28T06:00:30.473Z,17.21
2018-06-28T06:02:02.041Z,17.25
2018-06-28T06:03:33.691Z,17.26
2018-06-28T06:05:05.181Z,17.28
2018-06-28T06:06:36.752Z,17.31
2018-06-28T06:08:08.422Z,17.25
2018-06-28T06:09:40.020Z,17.16
2018-06-28T06:11:11.463Z,17.26
2018-06-28T06:12:43.033Z,17.55
2018-06-28T06:14:14.705Z,17.34
2018-06-28T06:15:46.174Z,17.36
2018-06-28T06:17:17.748Z,17.33
2018-06-28T06:18:49.316Z,17.21
2018-06-28T06:20:20.946Z,17.19
2018-06-28T06:21:52.457Z,17.18
2018-06-28T06:23:24.026Z,17.19
2018-06-28T06:24:55.600Z,17.23
2018-06-28T06:26:27.167Z,17.22
2018-06-28T06:27:58.737Z,17.22
2018-06-28T06:29:30.475Z,17.21
2018-06-28T06:31:01.879Z,17.15
2018-06-28T06:32:33.549Z,17.15
2018-06-28T06:34:05.019Z,17.16
2018-06-28T06:35:36.591Z,16.96
2018-06-28T06:37:08.160Z,16.98
2018-06-28T06:38:39.835Z,16.91
2018-06-28T06:40:11.300Z,16.98
2018-06-28T06:41:42.870Z,16.83
2018-06-28T06:43:14.442Z,16.81
2018-06-28T06:44:46.012Z,16.82
2018-06-28T06:46:17.581Z,16.70
2018-06-28T06:47:49.150Z,16.73
2018-06-28T06:49:20.721Z,16.66
2018-06-28T06:50:52.392Z,16.68
2018-06-28T06:52:23.862Z,16.71
2018-06-28T06:53:55.432Z,16.73
2018-06-28T06:55:27.002Z,16.61
2018-06-28T06:56:58.573Z,16.60
2018-06-28T06:58:30.142Z,16.61
2018-06-28T07:00:01.714Z,16.57
2018-06-28T07:01:33.282Z,16.61
2018-06-28T07:03:04.852Z,16.49
2018-06-28T07:04:36.422Z,16.53
2018-06-28T07:06:07.993Z,16.48
2018-06-28T07:07:39.563Z,16.49
2018-06-28T07:09:11.383Z,16.42
2018-06-28T07:10:42.703Z,16.56
2018-06-28T07:12:14.274Z,16.57
2018-06-28T07:13:45.844Z,16.56
2018-06-28T07:15:17.414Z,16.50
2018-06-28T07:16:48.984Z,16.49
2018-06-28T07:18:20.685Z,16.56
2018-06-28T07:19:52.125Z,16.58
2018-06-28T07:21:23.696Z,16.50
2018-06-28T07:22:55.361Z,16.53
2018-06-28T07:24:26.836Z,16.53
2018-06-28T07:25:58.407Z,16.53
2018-06-28T07:27:30.077Z,16.52
2018-06-28T07:29:01.553Z,16.50
2018-06-28T07:30:33.119Z,16.42
2018-06-28T07:32:04.689Z,16.53
2018-06-28T07:33:36.261Z,16.57
2018-06-28T07:35:07.830Z,16.52
2018-06-28T07:36:39.401Z,16.60
2018-06-28T07:38:10.971Z,16.63
2018-06-28T07:39:42.641Z,16.50
2018-06-28T07:41:14.112Z,16.53
2018-06-28T07:42:45.682Z,16.63
2018-06-28T07:44:17.252Z,16.64
2018-06-28T07:45:48.927Z,16.63
2018-06-28T07:47:20.399Z,16.67
2018-06-28T07:48:51.963Z,16.60
2018-06-28T07:50:23.534Z,16.57
2018-06-28T07:51:55.254Z,16.58
2018-06-28T07:53:26.674Z,16.56
2018-06-28T07:54:58.246Z,16.63
2018-06-28T07:56:29.815Z,16.57
2018-06-28T07:58:01.385Z,16.45
2018-06-28T07:59:33.118Z,16.52
2018-06-28T08:01:04.526Z,16.57
2018-06-28T08:02:36.130Z,16.60
2018-06-28T08:04:07.771Z,16.46
2018-06-28T08:05:39.237Z,16.63
2018-06-28T08:07:10.808Z,16.48
2018-06-28T08:08:42.378Z,16.52
2018-06-28T08:10:14.052Z,16.57
2018-06-28T08:11:45.518Z,16.60
2018-06-28T08:13:17.091Z,16.58
2018-06-28T08:14:48.661Z,16.49
2018-06-28T08:16:20.229Z,16.61
2018-06-28T08:17:51.805Z,16.50
2018-06-28T08:19:23.369Z,16.58
2018-06-28T08:20:54.940Z,16.49
2018-06-28T08:22:26.610Z,16.63
2018-06-28T08:23:58.080Z,16.56
2018-06-28T08:25:29.650Z,16.57
2018-06-28T08:27:01.296Z,16.56
2018-06-28T08:28:32.792Z,16.56
2018-06-28T08:30:04.362Z,16.60
2018-06-28T08:31:35.932Z,16.50
2018-06-28T08:33:07.504Z,16.52
2018-06-28T08:34:39.072Z,16.53
2018-06-28T08:36:10.715Z,16.58
2018-06-28T08:37:42.213Z,16.61
2018-06-28T08:39:13.784Z,16.58
2018-06-28T08:40:45.454Z,16.60
2018-06-28T08:42:16.924Z,16.56
2018-06-28T08:43:48.497Z,16.57
2018-06-28T08:45:20.068Z,16.60
2018-06-28T08:46:51.785Z,16.58
2018-06-28T08:48:23.205Z,16.66
2018-06-28T08:49:54.776Z,16.57
2018-06-28T08:51:26.345Z,16.64
2018-06-28T08:52:57.917Z,16.52
2018-06-28T08:54:30.338Z,16.57
2018-06-28T08:56:01.058Z,16.63
2018-06-28T08:57:32.655Z,16.66
2018-06-28T08:59:04.297Z,16.61
2018-06-28T09:00:35.767Z,16.53
2018-06-28T09:02:07.337Z,16.61
2018-06-28T09:03:38.907Z,16.63
2018-06-28T09:05:10.479Z,16.57
2018-06-28T09:06:42.049Z,16.58
2018-06-28T09:08:13.644Z,16.64
2018-06-28T09:09:45.189Z,16.58
2018-06-28T09:11:16.759Z,16.66
2018-06-28T09:12:48.329Z,16.60
2018-06-28T09:14:19.899Z,16.60
2018-06-28T09:15:51.469Z,16.58
2018-06-28T09:17:23.140Z,16.60
2018-06-28T09:18:54.611Z,16.60
2018-06-28T09:20:26.180Z,16.63
2018-06-28T09:21:57.750Z,16.66
2018-06-28T09:23:29.471Z,16.64
2018-06-28T09:25:00.891Z,16.64
2018-06-28T09:26:32.462Z,16.64
2018-06-28T09:28:04.032Z,16.60
2018-06-28T09:29:35.602Z,16.79
2018-06-28T09:31:07.173Z,16.66
2018-06-28T09:32:38.743Z,16.63
2018-06-28T09:34:10.313Z,16.67
2018-06-28T09:35:42.041Z,16.68
2018-06-28T09:37:13.454Z,16.73
2018-06-28T09:38:45.025Z,16.68
2018-06-28T09:40:16.595Z,16.67
2018-06-28T09:41:48.167Z,16.73
2018-06-28T09:43:19.735Z,16.58
2018-06-28T09:44:51.306Z,16.66
2018-06-28T09:46:22.877Z,16.64
2018-06-28T09:47:54.447Z,16.68
2018-06-28T09:49:26.018Z,16.64
2018-06-28T09:50:57.592Z,16.68
2018-06-28T09:52:29.362Z,16.61
2018-06-28T09:54:00.830Z,16.63
2018-06-28T09:55:32.301Z,16.60
2018-06-28T09:57:03.876Z,16.75
2018-06-28T09:58:35.443Z,16.78
2018-06-28T10:01:38.587Z,16.78
2018-06-28T10:03:10.157Z,16.81
2018-06-28T10:04:41.764Z,16.85
2018-06-28T10:07:45.575Z,17.01
2018-06-28T10:09:16.439Z,17.14
2018-06-28T10:10:48.010Z,17.38
2018-06-28T10:12:19.785Z,17.30
2018-06-28T10:13:51.254Z,17.31
2018-06-28T10:15:23.257Z,17.19
2018-06-28T10:16:54.295Z,17.21
2018-06-28T10:18:25.868Z,17.22
2018-06-28T10:19:57.642Z,17.15
2018-06-28T10:21:29.214Z,17.19
2018-06-28T10:23:00.788Z,17.22
2018-06-28T10:24:32.747Z,17.15
2018-06-28T10:26:03.726Z,17.28
2018-06-28T10:27:35.309Z,17.26
2018-06-28T10:30:38.972Z,17.33
2018-06-28T10:32:10.113Z,17.48
2018-06-28T10:35:13.371Z,17.28
2018-06-28T10:38:16.503Z,17.52
2018-06-28T10:41:19.646Z,17.59
2018-06-28T10:42:51.015Z,17.58
2018-06-28T10:47:26.173Z,17.66
2018-06-28T10:48:58.239Z,17.56
2018-06-28T10:50:28.933Z,17.58
2018-06-28T10:53:32.018Z,17.54
2018-06-28T10:55:03.591Z,17.46
2018-06-28T10:56:35.368Z,17.49
2018-06-28T10:59:38.334Z,17.71
2018-06-28T11:01:09.878Z,17.77
2018-06-28T11:02:41.754Z,17.72
2018-06-28T11:04:13.132Z,17.71
2018-06-28T11:10:19.470Z,17.96
2018-06-28T11:11:50.888Z,17.99
2018-06-28T11:13:22.483Z,18.03
2018-06-28T11:16:25.637Z,17.99
2018-06-28T11:17:57.174Z,18.11
2018-06-28T11:19:28.746Z,18.21
2018-06-28T11:21:00.522Z,18.17
2018-06-28T11:22:32.427Z,18.29
2018-06-28T11:24:03.770Z,18.37
2018-06-28T11:25:35.038Z,18.52
2018-06-28T11:28:38.284Z,18.66
2018-06-28T11:30:09.872Z,18.66
2018-06-28T11:31:41.331Z,18.98
2018-06-28T11:33:13.439Z,19.39
2018-06-28T11:34:44.479Z,19.69
2018-06-28T11:37:47.649Z,19.77
2018-06-28T11:40:50.810Z,19.18
2018-06-28T11:42:22.381Z,19.51
2018-06-28T11:43:53.929Z,19.58
2018-06-28T11:45:26.042Z,20.11
2018-06-28T11:46:57.342Z,19.80
2018-06-28T11:48:28.661Z,19.51
2018-06-28T11:50:00.233Z,19.44
2018-06-28T11:51:32.184Z,19.77
2018-06-28T11:53:03.739Z,19.62
2018-06-28T11:56:06.751Z,19.80
2018-06-28T11:57:38.149Z,20.39
2018-06-28T11:59:09.895Z,22.12
2018-06-28T12:00:41.805Z,21.56
2018-06-28T12:02:12.846Z,20.85
2018-06-28T12:03:44.424Z,21.17
2018-06-28T12:05:16.423Z,20.94
2018-06-28T12:08:19.360Z,19.59
2018-06-28T12:09:51.041Z,19.61
2018-06-28T12:11:22.319Z,19.44
2018-06-28T12:12:53.893Z,19.43
2018-06-28T12:15:57.264Z,19.28
2018-06-28T12:17:28.628Z,19.56
2018-06-28T12:19:00.827Z,19.81
2018-06-28T12:20:31.782Z,19.98
2018-06-28T12:22:03.356Z,19.91
2018-06-28T12:23:35.613Z,19.71
2018-06-28T12:25:06.753Z,19.87
2018-06-28T12:26:38.088Z,19.66
2018-06-28T12:28:09.718Z,19.96
2018-06-28T12:29:41.771Z,21.14
2018-06-28T12:32:45.029Z,20.51
2018-06-28T12:34:16.279Z,20.23
2018-06-28T12:35:47.596Z,20.16
2018-06-28T12:37:19.656Z,19.54
2018-06-28T12:38:52.434Z,19.68
2018-06-28T12:40:22.278Z,19.77
2018-06-28T12:41:54.488Z,19.46
2018-06-28T12:44:57.060Z,19.65
2018-06-28T12:46:28.645Z,19.78
2018-06-28T12:48:01.074Z,20.11
2018-06-28T12:49:32.044Z,20.38
2018-06-28T12:51:03.519Z,20.39
2018-06-28T12:52:34.894Z,20.59
2018-06-28T12:54:06.673Z,20.59
2018-06-28T12:55:38.057Z,20.42
2018-06-28T12:57:09.930Z,20.64
2018-06-28T12:58:41.407Z,20.64
2018-06-28T13:01:44.464Z,20.89
2018-06-28T13:03:16.466Z,21.01
2018-06-28T13:04:47.714Z,21.38
2018-06-28T13:06:19.291Z,21.31
2018-06-28T13:07:50.670Z,21.29
2018-06-28T13:09:22.268Z,20.91
2018-06-28T13:12:25.400Z,20.55
2018-06-28T13:13:56.979Z,20.72
2018-06-28T13:15:29.091Z,21.09
2018-06-28T13:17:00.742Z,21.37
2018-06-28T13:18:31.840Z,21.49
2018-06-28T13:20:03.415Z,21.72
2018-06-28T13:23:06.456Z,21.58
2018-06-28T13:24:38.068Z,21.71
2018-06-28T13:26:09.606Z,21.86
2018-06-28T13:27:41.184Z,21.82
2018-06-28T13:29:13.066Z,21.80
2018-06-28T13:30:44.341Z,22.27
2018-06-28T13:32:16.481Z,22.79
2018-06-28T13:33:48.251Z,22.92
2018-06-28T13:35:19.382Z,22.21
2018-06-28T13:36:50.861Z,21.68
2018-06-28T13:38:22.340Z,22.00
2018-06-28T13:41:25.552Z,22.57
2018-06-28T13:46:00.161Z,21.90
2018-06-28T13:47:31.920Z,21.31
2018-06-28T13:49:03.321Z,21.19
2018-06-28T13:50:35.179Z,21.38
2018-06-28T13:53:38.619Z,22.03
2018-06-28T13:55:09.624Z,22.58
2018-06-28T13:59:44.354Z,23.75
2018-06-28T14:01:16.152Z,23.60
2018-06-28T14:05:51.013Z,23.55
2018-06-28T14:07:22.257Z,22.57
2018-06-28T14:10:25.623Z,22.28
2018-06-28T14:11:57.174Z,22.90
2018-06-28T14:13:28.584Z,23.39
2018-06-28T14:15:00.484Z,24.08
2018-06-28T14:16:31.848Z,24.21
2018-06-28T14:22:38.076Z,23.90
2018-06-28T14:24:09.656Z,23.36
2018-06-28T14:25:41.293Z,23.65
2018-06-28T14:27:12.820Z,23.69
2018-06-28T14:28:44.827Z,23.60
2018-06-28T14:30:16.192Z,23.46
2018-06-28T14:31:48.460Z,22.91
2018-06-28T14:33:19.239Z,24.06
2018-06-28T14:36:22.614Z,23.76
2018-06-28T14:37:53.921Z,24.73
2018-06-28T14:39:25.522Z,25.25
2018-06-28T14:42:28.843Z,24.55
2018-06-28T14:44:00.956Z,23.83
2018-06-28T14:45:31.804Z,23.98
2018-06-28T14:47:03.717Z,24.34
2018-06-28T14:48:35.377Z,25.17
2018-06-28T14:50:06.587Z,25.55
2018-06-28T14:51:38.134Z,26.28
2018-06-28T14:56:13.086Z,25.36
2018-06-28T14:57:44.487Z,25.94
2018-06-28T15:00:48.036Z,25.52
2018-06-28T15:02:19.520Z,25.98
2018-06-28T15:03:50.838Z,26.28
2018-06-28T15:05:22.412Z,26.43
2018-06-28T15:06:53.977Z,26.55
2018-06-28T15:08:26.094Z,26.88
2018-06-28T15:11:28.719Z,26.45
2018-06-28T15:13:00.304Z,25.67
2018-06-28T15:14:31.953Z,25.13
2018-06-28T15:17:35.122Z,25.82
2018-06-28T15:20:38.446Z,26.01
2018-06-28T15:22:09.920Z,25.46
2018-06-28T15:23:41.404Z,25.94
2018-06-28T15:25:12.992Z,26.43
2018-06-28T15:29:48.014Z,26.13
2018-06-28T15:31:19.347Z,26.87
2018-06-28T15:32:51.515Z,26.89
2018-06-28T15:34:22.792Z,27.03
2018-06-28T15:35:54.062Z,26.15
2018-06-28T15:38:57.262Z,24.28
2018-06-28T15:40:29.016Z,24.73
2018-06-28T15:42:00.397Z,25.20
2018-06-28T15:43:31.985Z,25.90
2018-06-28T15:45:04.104Z,26.37
2018-06-28T15:46:35.152Z,26.29
2018-06-28T15:48:07.137Z,26.72
2018-06-28T15:49:38.550Z,27.07
2018-06-28T15:51:10.212Z,27.72
2018-06-28T15:52:41.505Z,27.18
2018-06-28T15:55:45.229Z,25.20
2018-06-28T15:58:47.818Z,25.36
2018-06-28T16:00:20.346Z,25.58
2018-06-28T16:03:22.670Z,24.80
2018-06-28T16:04:54.456Z,25.80
2018-06-28T16:06:25.885Z,26.77
2018-06-28T16:07:57.571Z,26.65
2018-06-28T16:09:29.233Z,25.91
2018-06-28T16:11:00.876Z,26.12
2018-06-28T16:12:32.285Z,26.76
2018-06-28T16:14:03.853Z,25.95
2018-06-28T16:15:35.541Z,26.09
2018-06-28T16:17:07.082Z,27.09
2018-06-28T16:20:09.986Z,27.19
2018-06-28T16:21:41.870Z,27.19
2018-06-28T16:23:13.155Z,25.98
2018-06-28T16:26:16.523Z,27.07
2018-06-28T16:27:47.905Z,26.62
2018-06-28T16:29:19.497Z,26.81
2018-06-28T16:30:51.072Z,26.76
2018-06-28T16:32:23.301Z,27.17
2018-06-28T16:33:54.287Z,27.70
2018-06-28T16:35:25.876Z,28.67
2018-06-28T16:38:28.995Z,28.90
2018-06-28T16:40:00.678Z,27.25
2018-06-28T16:44:35.889Z,27.00
2018-06-28T16:46:06.991Z,27.87
2018-06-28T16:47:38.505Z,28.52
2018-06-28T16:49:10.388Z,29.16
2018-06-28T16:50:41.674Z,29.28
2018-06-28T16:52:13.303Z,26.47
2018-06-28T16:55:16.545Z,25.46
2018-06-28T16:56:48.055Z,25.32
2018-06-28T16:58:19.921Z,25.46
2018-06-28T17:01:23.291Z,26.18
2018-06-28T17:02:54.518Z,26.80
2018-06-28T17:04:26.024Z,27.60
2018-06-28T17:05:57.709Z,27.47
2018-06-28T17:07:29.297Z,27.17
2018-06-28T17:09:00.669Z,27.49
2018-06-28T17:10:32.253Z,27.19
2018-06-28T17:12:04.044Z,26.45
2018-06-28T17:13:35.621Z,25.88
2018-06-28T17:15:07.002Z,25.92
2018-06-28T17:16:38.771Z,25.60
2018-06-28T17:18:10.167Z,25.51
2018-06-28T17:19:41.750Z,25.46
2018-06-28T17:21:13.462Z,25.62
2018-06-28T17:22:45.167Z,26.01
2018-06-28T17:24:16.536Z,26.57
2018-06-28T17:25:48.898Z,26.58
2018-06-28T17:27:19.857Z,27.14
2018-06-28T17:28:51.434Z,27.60
2018-06-28T17:30:23.073Z,27.49
2018-06-28T17:31:55.167Z,26.72
2018-06-28T17:33:26.071Z,27.22
2018-06-28T17:34:57.727Z,28.11
2018-06-28T17:36:29.356Z,28.89
2018-06-28T17:38:00.776Z,29.24
2018-06-28T17:39:32.318Z,29.71
2018-06-28T17:41:03.940Z,29.82
2018-06-28T17:42:35.482Z,29.80
2018-06-28T17:44:08.246Z,30.37
2018-06-28T17:45:38.649Z,29.92
2018-06-28T17:47:10.261Z,29.30
2018-06-28T17:48:41.881Z,29.52
2018-06-28T17:51:44.985Z,27.60
2018-06-28T17:53:16.670Z,28.36
2018-06-28T17:54:49.045Z,28.18
2018-06-28T17:56:20.264Z,27.27
2018-06-28T17:57:51.852Z,25.92
2018-06-28T18:00:54.488Z,26.02
2018-06-28T18:02:26.069Z,26.51
2018-06-28T18:03:58.258Z,26.89
2018-06-28T18:05:29.287Z,26.47
2018-06-28T18:07:01.032Z,26.94
2018-06-28T18:08:32.705Z,27.27
2018-06-28T18:10:03.985Z,27.22
2018-06-28T18:11:35.568Z,26.51
2018-06-28T18:13:07.778Z,26.36
2018-06-28T18:14:38.929Z,26.48
2018-06-28T18:17:41.892Z,27.29
2018-06-28T18:20:45.668Z,26.95
2018-06-28T18:22:16.651Z,27.12
2018-06-28T18:23:48.437Z,27.59
2018-06-28T18:25:20.003Z,27.55
2018-06-28T18:26:51.495Z,27.92
2018-06-28T18:28:23.166Z,27.24
2018-06-28T18:29:54.849Z,26.57
2018-06-28T18:31:26.128Z,26.44
2018-06-28T18:32:57.911Z,26.28
2018-06-28T18:37:32.454Z,27.41
2018-06-28T18:39:04.141Z,26.91
2018-06-28T18:42:07.211Z,27.29
2018-06-28T18:43:38.784Z,26.94
2018-06-28T18:45:10.477Z,26.65
2018-06-28T18:46:41.942Z,26.13
2018-06-28T18:49:45.105Z,25.62
2018-06-28T18:51:16.950Z,25.57
2018-06-28T18:54:19.853Z,25.25
2018-06-28T18:55:51.654Z,25.23
2018-06-28T18:57:23.007Z,25.23
2018-06-28T18:58:54.890Z,25.20
2018-06-28T19:00:26.167Z,25.18
2018-06-28T19:01:57.857Z,25.14
2018-06-28T19:05:01.211Z,25.25
2018-06-28T19:06:32.485Z,25.57
2018-06-28T19:08:04.073Z,25.99
2018-06-28T19:09:35.643Z,25.92
2018-06-28T19:12:39.058Z,25.75
2018-06-28T19:14:10.973Z,25.79
2018-06-28T19:15:41.970Z,26.06
2018-06-28T19:21:49.114Z,25.28
2018-06-28T19:24:51.435Z,25.14
2018-06-28T19:26:23.038Z,25.02
2018-06-28T19:27:54.996Z,24.81
2018-06-28T19:30:57.751Z,24.84
2018-06-28T19:32:29.637Z,24.83
2018-06-28T19:37:04.065Z,24.61
2018-06-28T19:38:35.644Z,24.68
2018-06-28T19:40:07.257Z,24.50
2018-06-28T19:41:38.862Z,25.28
2018-06-28T19:43:12.317Z,25.72
2018-06-28T19:44:41.956Z,25.75
2018-06-28T19:46:13.616Z,25.67
2018-06-28T19:47:45.316Z,25.46
2018-06-28T19:49:16.993Z,25.15
2018-06-28T19:55:23.372Z,25.43
2018-06-28T19:56:54.713Z,25.45
2018-06-28T19:58:26.387Z,25.42
2018-06-28T19:59:57.740Z,25.45
2018-06-28T20:01:29.543Z,25.20
2018-06-28T20:03:00.916Z,24.98
2018-06-28T20:04:32.524Z,24.61
2018-06-28T20:06:04.058Z,24.08
2018-06-28T20:07:35.627Z,23.66
2018-06-28T20:09:07.508Z,23.78
2018-06-28T20:10:39.516Z,23.61
2018-06-28T20:12:10.360Z,23.12
2018-06-28T20:13:42.069Z,22.61
2018-06-28T20:15:13.517Z,22.20
2018-06-28T20:16:45.332Z,21.91
2018-06-28T20:18:16.670Z,21.80
2018-06-28T20:19:48.346Z,21.77
2018-06-28T20:21:19.823Z,21.77
2018-06-28T20:22:51.400Z,21.49
2018-06-28T20:24:23.235Z,21.42
2018-06-28T20:25:57.719Z,21.13
2018-06-28T20:28:57.717Z,20.97
2018-06-28T20:30:29.281Z,20.85
2018-06-28T20:35:04.010Z,20.35
2018-06-28T20:36:35.583Z,20.16
2018-06-28T20:39:38.736Z,19.88
2018-06-28T20:41:10.309Z,19.87
2018-06-28T20:42:41.984Z,19.86
2018-06-28T20:44:13.459Z,19.80
2018-06-28T20:45:45.237Z,19.68
2018-06-28T20:47:16.609Z,19.71
2018-06-28T20:50:20.290Z,19.46
2018-06-28T20:51:51.332Z,19.41
2018-06-28T20:53:22.912Z,19.32
2018-06-28T20:54:54.483Z,19.25
2018-06-28T20:56:26.063Z,19.21
2018-06-28T20:57:57.630Z,19.14
2018-06-28T20:59:29.204Z,19.14
2018-06-28T21:01:00.780Z,19.11
2018-06-28T21:02:32.456Z,19.00
2018-06-28T21:04:03.935Z,19.00
2018-06-28T21:05:35.501Z,18.85
2018-06-28T21:07:07.075Z,18.92
2018-06-28T21:08:38.648Z,18.98
2018-06-28T21:10:10.224Z,18.92
2018-06-28T21:11:41.799Z,18.85
2018-06-28T21:13:13.375Z,18.82
2018-06-28T21:14:44.943Z,18.73
2018-06-28T21:16:16.517Z,18.73
2018-06-28T21:17:48.090Z,18.72
2018-06-28T21:19:19.664Z,18.67
2018-06-28T21:20:51.337Z,18.54
2018-06-28T21:22:22.830Z,18.57
2018-06-28T21:23:54.384Z,18.52
2018-06-28T21:25:25.958Z,18.57
2018-06-28T21:26:57.531Z,18.52
2018-06-28T21:28:29.105Z,18.54
2018-06-28T21:30:00.677Z,18.60
2018-06-28T21:31:32.259Z,18.48
2018-06-28T21:33:03.842Z,18.50
2018-06-28T21:34:35.460Z,18.47
2018-06-28T21:36:06.971Z,18.47
2018-06-28T21:37:38.544Z,18.39
2018-06-28T21:39:10.217Z,18.26
2018-06-28T21:40:41.689Z,18.20
2018-06-28T21:42:13.263Z,18.20
2018-06-28T21:43:44.836Z,18.20
2018-06-28T21:45:16.409Z,18.02
2018-06-28T21:46:47.982Z,18.02